sensor_id;sensor_type;location;lat;lon;timestamp;pressure;altitude;pressure_sealevel;temperature;humidity
6349;BME280;3207;42.648;23.406;2023-08-20T00:00:58;100313.38;;;24.74;88.02
6349;BME280;3207;42.648;23.406;2023-08-20T00:03:25;100324.19;;;24.88;86.92
6349;BME280;3207;42.648;23.406;2023-08-20T00:05:52;100316.72;;;24.83;87.11
6349;BME280;3207;42.648;23.406;2023-08-20T00:08:19;100316.56;;;24.91;86.42
6349;BME280;3207;42.648;23.406;2023-08-20T00:10:48;100317.38;;;24.92;86.65
6349;BME280;3207;42.648;23.406;2023-08-20T00:13:14;100314.16;;;24.96;86.64
6349;BME280;3207;42.648;23.406;2023-08-20T00:15:42;100315.00;;;24.97;86.80
6349;BME280;3207;42.648;23.406;2023-08-20T00:18:09;100306.00;;;24.76;88.04
6349;BME280;3207;42.648;23.406;2023-08-20T00:20:37;100312.53;;;24.67;88.82
6349;BME280;3207;42.648;23.406;2023-08-20T00:23:06;100309.56;;;24.56;90.08
6349;BME280;3207;42.648;23.406;2023-08-20T00:25:33;100300.06;;;24.53;90.20
6349;BME280;3207;42.648;23.406;2023-08-20T00:28:02;100298.03;;;24.55;90.40
6349;BME280;3207;42.648;23.406;2023-08-20T00:30:29;100307.56;;;24.64;90.40
6349;BME280;3207;42.648;23.406;2023-08-20T00:32:55;100291.22;;;24.53;91.03
6349;BME280;3207;42.648;23.406;2023-08-20T00:35:22;100289.72;;;24.43;91.47
6349;BME280;3207;42.648;23.406;2023-08-20T00:37:50;100289.25;;;24.33;91.47
6349;BME280;3207;42.648;23.406;2023-08-20T00:40:17;100289.16;;;24.27;91.37
6349;BME280;3207;42.648;23.406;2023-08-20T00:42:44;100286.13;;;24.30;91.49
6349;BME280;3207;42.648;23.406;2023-08-20T00:45:12;100291.09;;;24.33;90.84
6349;BME280;3207;42.648;23.406;2023-08-20T00:47:40;100299.25;;;24.53;89.85
6349;BME280;3207;42.648;23.406;2023-08-20T00:50:07;100294.41;;;24.69;88.79
6349;BME280;3207;42.648;23.406;2023-08-20T00:52:36;100292.47;;;24.85;87.77
6349;BME280;3207;42.648;23.406;2023-08-20T00:55:07;100296.53;;;24.80;87.64
6349;BME280;3207;42.648;23.406;2023-08-20T00:57:35;100294.00;;;24.66;88.35
6349;BME280;3207;42.648;23.406;2023-08-20T01:00:02;100299.38;;;24.72;87.85
6349;BME280;3207;42.648;23.406;2023-08-20T01:02:33;100305.47;;;24.60;87.67
6349;BME280;3207;42.648;23.406;2023-08-20T01:05:01;100305.81;;;24.50;88.51
6349;BME280;3207;42.648;23.406;2023-08-20T01:07:32;100298.59;;;24.51;88.05
6349;BME280;3207;42.648;23.406;2023-08-20T01:10:08;100296.63;;;24.31;89.55
6349;BME280;3207;42.648;23.406;2023-08-20T01:12:35;100297.28;;;24.40;88.89
6349;BME280;3207;42.648;23.406;2023-08-20T01:15:03;100308.31;;;24.58;87.81
6349;BME280;3207;42.648;23.406;2023-08-20T01:17:30;100303.03;;;24.65;87.08
6349;BME280;3207;42.648;23.406;2023-08-20T01:19:58;100297.97;;;24.76;86.38
6349;BME280;3207;42.648;23.406;2023-08-20T01:22:55;100299.03;;;24.82;86.07
6349;BME280;3207;42.648;23.406;2023-08-20T01:25:32;100307.41;;;24.72;86.34
6349;BME280;3207;42.648;23.406;2023-08-20T01:28:20;100315.69;;;24.77;86.56
6349;BME280;3207;42.648;23.406;2023-08-20T01:30:48;100308.41;;;24.71;87.57
6349;BME280;3207;42.648;23.406;2023-08-20T01:33:16;100306.03;;;24.83;87.20
6349;BME280;3207;42.648;23.406;2023-08-20T01:35:43;100301.69;;;24.82;87.55
6349;BME280;3207;42.648;23.406;2023-08-20T01:38:09;100301.03;;;24.73;87.62
6349;BME280;3207;42.648;23.406;2023-08-20T01:40:37;100300.09;;;24.60;88.33
6349;BME280;3207;42.648;23.406;2023-08-20T01:43:03;100310.78;;;24.53;88.79
6349;BME280;3207;42.648;23.406;2023-08-20T01:45:32;100317.50;;;24.49;88.18
6349;BME280;3207;42.648;23.406;2023-08-20T01:47:59;100318.88;;;24.38;87.94
6349;BME280;3207;42.648;23.406;2023-08-20T01:50:25;100321.13;;;24.35;88.07
6349;BME280;3207;42.648;23.406;2023-08-20T01:52:52;100310.81;;;24.32;87.28
6349;BME280;3207;42.648;23.406;2023-08-20T01:55:19;100328.72;;;24.17;87.83
6349;BME280;3207;42.648;23.406;2023-08-20T01:57:46;100326.44;;;24.14;88.11
6349;BME280;3207;42.648;23.406;2023-08-20T02:00:13;100323.50;;;24.08;87.88
6349;BME280;3207;42.648;23.406;2023-08-20T02:02:42;100324.16;;;24.11;87.93
6349;BME280;3207;42.648;23.406;2023-08-20T02:05:09;100322.25;;;24.04;87.78
6349;BME280;3207;42.648;23.406;2023-08-20T02:07:36;100324.03;;;23.97;87.76
6349;BME280;3207;42.648;23.406;2023-08-20T02:10:04;100333.13;;;24.03;87.45
6349;BME280;3207;42.648;23.406;2023-08-20T02:12:31;100335.53;;;23.98;86.73
6349;BME280;3207;42.648;23.406;2023-08-20T02:14:58;100330.78;;;23.93;86.75
6349;BME280;3207;42.648;23.406;2023-08-20T02:17:25;100331.66;;;24.00;86.65
6349;BME280;3207;42.648;23.406;2023-08-20T02:19:53;100333.19;;;24.09;86.65
6349;BME280;3207;42.648;23.406;2023-08-20T02:22:20;100343.50;;;24.13;86.72
6349;BME280;3207;42.648;23.406;2023-08-20T02:24:47;100324.50;;;24.22;86.06
6349;BME280;3207;42.648;23.406;2023-08-20T02:27:14;100329.97;;;24.35;85.50
6349;BME280;3207;42.648;23.406;2023-08-20T02:29:40;100323.00;;;24.41;84.89
6349;BME280;3207;42.648;23.406;2023-08-20T02:32:07;100332.53;;;24.50;84.54
6349;BME280;3207;42.648;23.406;2023-08-20T02:34:34;100337.56;;;24.38;84.79
6349;BME280;3207;42.648;23.406;2023-08-20T02:37:02;100324.84;;;24.19;85.47
6349;BME280;3207;42.648;23.406;2023-08-20T02:39:29;100328.63;;;24.03;86.28
6349;BME280;3207;42.648;23.406;2023-08-20T02:41:57;100329.97;;;24.14;85.21
6349;BME280;3207;42.648;23.406;2023-08-20T02:44:23;100334.19;;;24.08;85.61
6349;BME280;3207;42.648;23.406;2023-08-20T02:46:50;100308.97;;;23.90;85.52
6349;BME280;3207;42.648;23.406;2023-08-20T02:49:17;100331.72;;;24.07;85.58
6349;BME280;3207;42.648;23.406;2023-08-20T02:51:44;100338.34;;;24.11;85.37
6349;BME280;3207;42.648;23.406;2023-08-20T02:54:12;100337.31;;;24.12;85.46
6349;BME280;3207;42.648;23.406;2023-08-20T02:56:39;100334.84;;;24.11;85.66
6349;BME280;3207;42.648;23.406;2023-08-20T02:59:06;100332.69;;;23.99;86.09
6349;BME280;3207;42.648;23.406;2023-08-20T03:01:32;100327.53;;;23.98;86.05
6349;BME280;3207;42.648;23.406;2023-08-20T03:03:59;100332.63;;;23.93;86.07
6349;BME280;3207;42.648;23.406;2023-08-20T03:06:26;100335.97;;;23.80;86.89
6349;BME280;3207;42.648;23.406;2023-08-20T03:08:53;100337.94;;;23.71;87.55
6349;BME280;3207;42.648;23.406;2023-08-20T03:11:21;100335.19;;;23.65;88.04
6349;BME280;3207;42.648;23.406;2023-08-20T03:13:48;100332.78;;;23.70;88.14
6349;BME280;3207;42.648;23.406;2023-08-20T03:16:15;100329.19;;;23.63;88.33
6349;BME280;3207;42.648;23.406;2023-08-20T03:18:41;100328.06;;;23.51;89.28
6349;BME280;3207;42.648;23.406;2023-08-20T03:21:08;100325.63;;;23.56;89.22
6349;BME280;3207;42.648;23.406;2023-08-20T03:23:36;100331.34;;;23.53;89.19
6349;BME280;3207;42.648;23.406;2023-08-20T03:26:02;100329.06;;;23.50;89.19
6349;BME280;3207;42.648;23.406;2023-08-20T03:28:31;100329.06;;;23.50;89.32
6349;BME280;3207;42.648;23.406;2023-08-20T03:30:59;100316.34;;;23.37;89.69
6349;BME280;3207;42.648;23.406;2023-08-20T03:33:27;100325.44;;;23.43;89.70
6349;BME280;3207;42.648;23.406;2023-08-20T03:35:54;100326.66;;;23.40;89.90
6349;BME280;3207;42.648;23.406;2023-08-20T03:38:21;100331.34;;;23.38;90.38
6349;BME280;3207;42.648;23.406;2023-08-20T03:40:49;100333.56;;;23.34;90.67
6349;BME280;3207;42.648;23.406;2023-08-20T03:43:16;100322.75;;;23.43;89.89
6349;BME280;3207;42.648;23.406;2023-08-20T03:45:44;100327.84;;;23.38;89.79
6349;BME280;3207;42.648;23.406;2023-08-20T03:48:11;100326.19;;;23.36;89.48
6349;BME280;3207;42.648;23.406;2023-08-20T03:50:38;100327.13;;;23.29;90.12
6349;BME280;3207;42.648;23.406;2023-08-20T03:53:05;100337.97;;;23.27;90.00
6349;BME280;3207;42.648;23.406;2023-08-20T03:55:31;100338.16;;;23.26;90.13
6349;BME280;3207;42.648;23.406;2023-08-20T03:57:58;100336.16;;;23.13;90.66
6349;BME280;3207;42.648;23.406;2023-08-20T04:00:25;100338.34;;;23.10;91.06
6349;BME280;3207;42.648;23.406;2023-08-20T04:02:53;100340.22;;;23.09;91.21
6349;BME280;3207;42.648;23.406;2023-08-20T04:05:20;100339.81;;;23.12;91.45
6349;BME280;3207;42.648;23.406;2023-08-20T04:07:47;100343.03;;;23.22;91.05
6349;BME280;3207;42.648;23.406;2023-08-20T04:10:14;100345.34;;;23.40;90.39
6349;BME280;3207;42.648;23.406;2023-08-20T04:12:41;100346.72;;;23.51;89.69
6349;BME280;3207;42.648;23.406;2023-08-20T04:15:08;100346.53;;;23.52;89.58
6349;BME280;3207;42.648;23.406;2023-08-20T04:17:35;100352.78;;;23.45;89.70
6349;BME280;3207;42.648;23.406;2023-08-20T04:20:04;100358.09;;;23.45;89.73
6349;BME280;3207;42.648;23.406;2023-08-20T04:22:33;100364.00;;;23.55;88.92
6349;BME280;3207;42.648;23.406;2023-08-20T04:25:00;100359.31;;;23.57;88.52
6349;BME280;3207;42.648;23.406;2023-08-20T04:27:27;100362.75;;;23.51;88.33
6349;BME280;3207;42.648;23.406;2023-08-20T04:29:56;100360.41;;;23.48;88.29
6349;BME280;3207;42.648;23.406;2023-08-20T04:32:22;100363.38;;;23.53;87.84
6349;BME280;3207;42.648;23.406;2023-08-20T04:34:49;100365.66;;;23.56;86.78
6349;BME280;3207;42.648;23.406;2023-08-20T04:37:19;100369.63;;;23.60;86.18
6349;BME280;3207;42.648;23.406;2023-08-20T04:39:46;100375.41;;;23.49;86.52
6349;BME280;3207;42.648;23.406;2023-08-20T04:42:12;100368.91;;;23.51;86.64
6349;BME280;3207;42.648;23.406;2023-08-20T04:44:39;100379.03;;;23.56;87.07
6349;BME280;3207;42.648;23.406;2023-08-20T04:47:11;100375.97;;;23.59;86.89
6349;BME280;3207;42.648;23.406;2023-08-20T04:49:37;100374.69;;;23.55;86.99
6349;BME280;3207;42.648;23.406;2023-08-20T04:52:04;100378.84;;;23.57;87.38
6349;BME280;3207;42.648;23.406;2023-08-20T04:54:32;100383.63;;;23.62;87.46
6349;BME280;3207;42.648;23.406;2023-08-20T04:56:59;100374.97;;;23.60;87.66
6349;BME280;3207;42.648;23.406;2023-08-20T04:59:26;100384.34;;;23.70;87.30
6349;BME280;3207;42.648;23.406;2023-08-20T05:01:53;100383.69;;;23.83;86.85
6349;BME280;3207;42.648;23.406;2023-08-20T05:04:20;100382.22;;;24.02;85.43
6349;BME280;3207;42.648;23.406;2023-08-20T05:06:47;100388.09;;;24.12;84.80
6349;BME280;3207;42.648;23.406;2023-08-20T05:09:14;100386.41;;;24.26;84.06
6349;BME280;3207;42.648;23.406;2023-08-20T05:11:42;100385.00;;;24.30;83.50
6349;BME280;3207;42.648;23.406;2023-08-20T05:14:09;100381.94;;;24.33;83.33
6349;BME280;3207;42.648;23.406;2023-08-20T05:16:36;100395.75;;;24.58;81.93
6349;BME280;3207;42.648;23.406;2023-08-20T05:19:03;100386.22;;;24.76;81.18
6349;BME280;3207;42.648;23.406;2023-08-20T05:21:30;100390.16;;;24.80;80.99
6349;BME280;3207;42.648;23.406;2023-08-20T05:23:57;100392.78;;;24.95;80.35
6349;BME280;3207;42.648;23.406;2023-08-20T05:26:24;100384.97;;;25.00;79.73
6349;BME280;3207;42.648;23.406;2023-08-20T05:28:52;100387.72;;;25.07;80.16
6349;BME280;3207;42.648;23.406;2023-08-20T05:31:19;100358.00;;;24.95;80.10
6349;BME280;3207;42.648;23.406;2023-08-20T05:33:46;100385.34;;;25.25;79.16
6349;BME280;3207;42.648;23.406;2023-08-20T05:36:13;100387.00;;;25.33;78.80
6349;BME280;3207;42.648;23.406;2023-08-20T05:38:40;100387.47;;;25.36;78.84
6349;BME280;3207;42.648;23.406;2023-08-20T05:41:08;100388.91;;;25.39;78.79
6349;BME280;3207;42.648;23.406;2023-08-20T05:43:35;100393.31;;;25.53;77.83
6349;BME280;3207;42.648;23.406;2023-08-20T05:46:04;100395.47;;;25.71;77.08
6349;BME280;3207;42.648;23.406;2023-08-20T05:48:31;100390.19;;;25.84;76.81
6349;BME280;3207;42.648;23.406;2023-08-20T05:50:58;100388.97;;;25.93;77.27
6349;BME280;3207;42.648;23.406;2023-08-20T05:53:25;100398.28;;;26.10;76.95
6349;BME280;3207;42.648;23.406;2023-08-20T05:55:51;100396.84;;;26.21;77.00
6349;BME280;3207;42.648;23.406;2023-08-20T05:58:18;100395.41;;;26.25;77.66
6349;BME280;3207;42.648;23.406;2023-08-20T06:00:45;100406.41;;;26.37;78.04
6349;BME280;3207;42.648;23.406;2023-08-20T06:03:13;100397.34;;;26.38;78.43
6349;BME280;3207;42.648;23.406;2023-08-20T06:05:40;100398.75;;;26.40;79.13
6349;BME280;3207;42.648;23.406;2023-08-20T06:08:07;100404.13;;;26.40;80.16
6349;BME280;3207;42.648;23.406;2023-08-20T06:10:34;100405.59;;;26.56;79.88
6349;BME280;3207;42.648;23.406;2023-08-20T06:13:01;100407.66;;;26.67;79.80
6349;BME280;3207;42.648;23.406;2023-08-20T06:15:28;100413.84;;;26.68;80.37
6349;BME280;3207;42.648;23.406;2023-08-20T06:17:55;100406.00;;;26.66;80.68
6349;BME280;3207;42.648;23.406;2023-08-20T06:20:23;100406.84;;;26.80;80.10
6349;BME280;3207;42.648;23.406;2023-08-20T06:22:50;100417.16;;;26.89;79.93
6349;BME280;3207;42.648;23.406;2023-08-20T06:25:16;100410.94;;;27.02;79.45
6349;BME280;3207;42.648;23.406;2023-08-20T06:27:43;100422.94;;;27.06;79.16
6349;BME280;3207;42.648;23.406;2023-08-20T06:30:11;100418.34;;;27.26;78.38
6349;BME280;3207;42.648;23.406;2023-08-20T06:32:38;100425.56;;;27.32;78.31
6349;BME280;3207;42.648;23.406;2023-08-20T06:35:05;100424.47;;;27.53;77.52
6349;BME280;3207;42.648;23.406;2023-08-20T06:37:35;100422.38;;;27.68;76.87
6349;BME280;3207;42.648;23.406;2023-08-20T06:40:03;100418.59;;;27.83;76.48
6349;BME280;3207;42.648;23.406;2023-08-20T06:42:30;100417.28;;;27.98;75.42
6349;BME280;3207;42.648;23.406;2023-08-20T06:44:56;100413.06;;;28.09;75.25
6349;BME280;3207;42.648;23.406;2023-08-20T06:47:23;100414.69;;;28.23;74.95
6349;BME280;3207;42.648;23.406;2023-08-20T06:49:50;100426.41;;;28.29;75.17
6349;BME280;3207;42.648;23.406;2023-08-20T06:52:17;100432.75;;;28.48;74.37
6349;BME280;3207;42.648;23.406;2023-08-20T06:54:45;100441.47;;;28.68;74.46
6349;BME280;3207;42.648;23.406;2023-08-20T06:57:12;100439.97;;;28.79;73.49
6349;BME280;3207;42.648;23.406;2023-08-20T06:59:39;100437.72;;;29.00;71.95
6349;BME280;3207;42.648;23.406;2023-08-20T07:02:07;100447.97;;;29.10;72.19
6349;BME280;3207;42.648;23.406;2023-08-20T07:04:35;100445.38;;;29.22;71.26
6349;BME280;3207;42.648;23.406;2023-08-20T07:07:02;100434.91;;;29.32;70.67
6349;BME280;3207;42.648;23.406;2023-08-20T07:09:30;100440.34;;;29.50;69.89
6349;BME280;3207;42.648;23.406;2023-08-20T07:11:58;100443.72;;;29.64;69.71
6349;BME280;3207;42.648;23.406;2023-08-20T07:14:25;100438.91;;;29.84;69.21
6349;BME280;3207;42.648;23.406;2023-08-20T07:16:52;100439.09;;;30.01;68.19
6349;BME280;3207;42.648;23.406;2023-08-20T07:19:18;100446.69;;;30.22;68.45
6349;BME280;3207;42.648;23.406;2023-08-20T07:21:45;100452.53;;;30.49;65.69
6349;BME280;3207;42.648;23.406;2023-08-20T07:24:12;100444.97;;;30.58;66.10
6349;BME280;3207;42.648;23.406;2023-08-20T07:26:39;100451.56;;;30.85;64.46
6349;BME280;3207;42.648;23.406;2023-08-20T07:29:07;100451.47;;;31.03;62.77
6349;BME280;3207;42.648;23.406;2023-08-20T07:31:40;100448.09;;;31.19;62.33
6349;BME280;3207;42.648;23.406;2023-08-20T07:34:07;100453.84;;;31.35;62.19
6349;BME280;3207;42.648;23.406;2023-08-20T07:36:34;100450.16;;;31.52;61.63
6349;BME280;3207;42.648;23.406;2023-08-20T07:39:01;100444.50;;;31.77;56.56
6349;BME280;3207;42.648;23.406;2023-08-20T07:41:28;100450.56;;;32.24;55.92
6349;BME280;3207;42.648;23.406;2023-08-20T07:43:55;100459.28;;;32.71;49.63
6349;BME280;3207;42.648;23.406;2023-08-20T07:46:23;100459.84;;;33.24;50.22
6349;BME280;3207;42.648;23.406;2023-08-20T07:48:50;100459.63;;;33.69;47.16
6349;BME280;3207;42.648;23.406;2023-08-20T07:51:17;100463.97;;;34.13;48.91
6349;BME280;3207;42.648;23.406;2023-08-20T07:53:44;100470.03;;;34.47;46.73
6349;BME280;3207;42.648;23.406;2023-08-20T07:56:10;100466.53;;;34.79;44.65
6349;BME280;3207;42.648;23.406;2023-08-20T07:58:37;100470.72;;;34.97;45.01
6349;BME280;3207;42.648;23.406;2023-08-20T08:01:04;100466.53;;;35.16;44.85
6349;BME280;3207;42.648;23.406;2023-08-20T08:03:32;100463.72;;;35.43;44.40
6349;BME280;3207;42.648;23.406;2023-08-20T08:05:59;100448.28;;;35.64;43.06
6349;BME280;3207;42.648;23.406;2023-08-20T08:08:26;100463.19;;;36.08;41.50
6349;BME280;3207;42.648;23.406;2023-08-20T08:10:53;100458.88;;;36.38;40.14
6349;BME280;3207;42.648;23.406;2023-08-20T08:13:21;100468.22;;;36.72;40.07
6349;BME280;3207;42.648;23.406;2023-08-20T08:15:50;100467.38;;;36.92;40.13
6349;BME280;3207;42.648;23.406;2023-08-20T08:18:17;100465.69;;;37.11;39.60
6349;BME280;3207;42.648;23.406;2023-08-20T08:20:46;100460.50;;;37.30;38.54
6349;BME280;3207;42.648;23.406;2023-08-20T08:23:12;100458.59;;;37.30;39.62
6349;BME280;3207;42.648;23.406;2023-08-20T08:25:39;100457.28;;;36.97;40.61
6349;BME280;3207;42.648;23.406;2023-08-20T08:28:06;100458.09;;;36.78;40.38
6349;BME280;3207;42.648;23.406;2023-08-20T08:30:33;100455.09;;;36.54;41.10
6349;BME280;3207;42.648;23.406;2023-08-20T08:33:00;100454.28;;;36.33;41.75
6349;BME280;3207;42.648;23.406;2023-08-20T08:35:27;100454.00;;;36.40;41.42
6349;BME280;3207;42.648;23.406;2023-08-20T08:37:55;100454.28;;;36.43;41.68
6349;BME280;3207;42.648;23.406;2023-08-20T08:40:25;100454.56;;;36.52;41.77
6349;BME280;3207;42.648;23.406;2023-08-20T08:42:54;100452.38;;;36.49;41.91
6349;BME280;3207;42.648;23.406;2023-08-20T08:45:21;100452.63;;;36.57;42.31
6349;BME280;3207;42.648;23.406;2023-08-20T08:47:49;100463.81;;;36.61;42.64
6349;BME280;3207;42.648;23.406;2023-08-20T08:50:17;100464.38;;;36.78;43.46
6349;BME280;3207;42.648;23.406;2023-08-20T08:52:45;100458.66;;;36.95;43.65
6349;BME280;3207;42.648;23.406;2023-08-20T08:55:15;100466.53;;;37.07;43.50
6349;BME280;3207;42.648;23.406;2023-08-20T08:57:42;100459.44;;;37.11;43.33
6349;BME280;3207;42.648;23.406;2023-08-20T09:00:09;100464.06;;;37.20;42.10
6349;BME280;3207;42.648;23.406;2023-08-20T09:02:36;100465.97;;;37.25;42.70
6349;BME280;3207;42.648;23.406;2023-08-20T09:05:05;100456.16;;;37.24;42.67
6349;BME280;3207;42.648;23.406;2023-08-20T09:07:32;100463.56;;;37.18;42.20
6349;BME280;3207;42.648;23.406;2023-08-20T09:09:59;100456.44;;;37.02;42.20
6349;BME280;3207;42.648;23.406;2023-08-20T09:12:27;100461.09;;;36.91;42.24
6349;BME280;3207;42.648;23.406;2023-08-20T09:14:54;100452.13;;;36.86;42.16
6349;BME280;3207;42.648;23.406;2023-08-20T09:17:26;100465.72;;;36.91;42.61
6349;BME280;3207;42.648;23.406;2023-08-20T09:19:55;100460.00;;;37.02;42.04
6349;BME280;3207;42.648;23.406;2023-08-20T09:22:23;100461.63;;;37.03;41.02
6349;BME280;3207;42.648;23.406;2023-08-20T09:24:54;100458.59;;;37.10;40.87
6349;BME280;3207;42.648;23.406;2023-08-20T09:27:21;100458.59;;;37.10;41.01
6349;BME280;3207;42.648;23.406;2023-08-20T09:29:51;100464.59;;;37.12;41.10
6349;BME280;3207;42.648;23.406;2023-08-20T09:32:20;100461.34;;;37.05;40.76
6349;BME280;3207;42.648;23.406;2023-08-20T09:34:47;100457.84;;;36.94;41.07
6349;BME280;3207;42.648;23.406;2023-08-20T09:37:17;100466.56;;;36.91;41.43
6349;BME280;3207;42.648;23.406;2023-08-20T09:39:44;100461.66;;;36.93;40.91
6349;BME280;3207;42.648;23.406;2023-08-20T09:42:12;100455.34;;;36.98;40.53
6349;BME280;3207;42.648;23.406;2023-08-20T09:44:40;100456.72;;;37.06;39.99
6349;BME280;3207;42.648;23.406;2023-08-20T09:47:09;100449.06;;;37.28;38.96
6349;BME280;3207;42.648;23.406;2023-08-20T09:49:38;100451.22;;;37.31;39.09
6349;BME280;3207;42.648;23.406;2023-08-20T09:52:06;100440.88;;;37.28;38.81
6349;BME280;3207;42.648;23.406;2023-08-20T09:54:53;100447.44;;;37.27;38.21
6349;BME280;3207;42.648;23.406;2023-08-20T09:57:32;100451.22;;;37.36;38.62
6349;BME280;3207;42.648;23.406;2023-08-20T10:00:00;100445.19;;;37.49;38.59
6349;BME280;3207;42.648;23.406;2023-08-20T10:02:29;100449.22;;;37.57;38.29
6349;BME280;3207;42.648;23.406;2023-08-20T10:04:57;100452.50;;;37.59;38.38
6349;BME280;3207;42.648;23.406;2023-08-20T10:07:29;100453.56;;;37.68;38.25
6349;BME280;3207;42.648;23.406;2023-08-20T10:09:58;100452.22;;;37.70;38.16
6349;BME280;3207;42.648;23.406;2023-08-20T10:12:26;100453.81;;;37.77;37.92
6349;BME280;3207;42.648;23.406;2023-08-20T10:14:54;100452.72;;;37.78;37.60
6349;BME280;3207;42.648;23.406;2023-08-20T10:17:22;100448.41;;;37.61;37.70
6349;BME280;3207;42.648;23.406;2023-08-20T10:19:51;100440.22;;;37.61;38.23
6349;BME280;3207;42.648;23.406;2023-08-20T10:22:18;100454.91;;;37.76;37.56
6349;BME280;3207;42.648;23.406;2023-08-20T10:24:49;100436.81;;;37.85;37.03
6349;BME280;3207;42.648;23.406;2023-08-20T10:27:27;100433.53;;;37.93;37.25
6349;BME280;3207;42.648;23.406;2023-08-20T10:29:55;100438.91;;;38.08;35.78
6349;BME280;3207;42.648;23.406;2023-08-20T10:32:43;100435.06;;;38.14;35.61
6349;BME280;3207;42.648;23.406;2023-08-20T10:35:12;100428.19;;;38.17;35.91
6349;BME280;3207;42.648;23.406;2023-08-20T10:37:39;100428.47;;;38.15;35.54
6349;BME280;3207;42.648;23.406;2023-08-20T10:40:46;100434.44;;;38.22;35.69
6349;BME280;3207;42.648;23.406;2023-08-20T10:43:26;100429.81;;;38.18;35.88
6349;BME280;3207;42.648;23.406;2023-08-20T10:46:02;100431.53;;;38.08;35.80
6349;BME280;3207;42.648;23.406;2023-08-20T10:48:30;100424.69;;;38.11;36.39
6349;BME280;3207;42.648;23.406;2023-08-20T10:50:58;100431.13;;;38.25;36.41
6349;BME280;3207;42.648;23.406;2023-08-20T10:53:25;100425.66;;;38.25;36.07
6349;BME280;3207;42.648;23.406;2023-08-20T10:56:12;100431.56;;;37.98;37.12
6349;BME280;3207;42.648;23.406;2023-08-20T10:58:42;100433.59;;;37.78;36.98
6349;BME280;3207;42.648;23.406;2023-08-20T11:01:16;100439.09;;;37.67;37.20
6349;BME280;3207;42.648;23.406;2023-08-20T11:03:50;100430.66;;;37.59;37.78
6349;BME280;3207;42.648;23.406;2023-08-20T11:06:18;100427.09;;;37.68;37.76
6349;BME280;3207;42.648;23.406;2023-08-20T11:08:45;100429.84;;;37.58;37.86
6349;BME280;3207;42.648;23.406;2023-08-20T11:11:13;100430.06;;;37.72;37.42
6349;BME280;3207;42.648;23.406;2023-08-20T11:13:40;100425.63;;;37.91;37.12
6349;BME280;3207;42.648;23.406;2023-08-20T11:16:08;100433.47;;;38.03;36.43
6349;BME280;3207;42.648;23.406;2023-08-20T11:18:36;100431.59;;;37.93;36.65
6349;BME280;3207;42.648;23.406;2023-08-20T11:21:03;100427.25;;;37.92;36.23
6349;BME280;3207;42.648;23.406;2023-08-20T11:23:31;100424.78;;;37.91;35.97
6349;BME280;3207;42.648;23.406;2023-08-20T11:25:59;100428.06;;;37.93;36.44
6349;BME280;3207;42.648;23.406;2023-08-20T11:28:27;100428.50;;;38.05;35.62
6349;BME280;3207;42.648;23.406;2023-08-20T11:30:54;100404.50;;;38.02;35.46
6349;BME280;3207;42.648;23.406;2023-08-20T11:33:23;100426.72;;;38.34;35.39
6349;BME280;3207;42.648;23.406;2023-08-20T11:35:52;100433.22;;;38.38;34.97
6349;BME280;3207;42.648;23.406;2023-08-20T11:38:21;100427.22;;;38.36;34.65
6349;BME280;3207;42.648;23.406;2023-08-20T11:40:49;100425.03;;;38.38;35.18
6349;BME280;3207;42.648;23.406;2023-08-20T11:43:17;100422.63;;;38.32;35.77
6349;BME280;3207;42.648;23.406;2023-08-20T11:45:45;100426.78;;;38.24;35.03
6349;BME280;3207;42.648;23.406;2023-08-20T11:48:12;100426.47;;;38.31;35.31
6349;BME280;3207;42.648;23.406;2023-08-20T11:50:39;100419.06;;;38.31;35.61
6349;BME280;3207;42.648;23.406;2023-08-20T11:53:06;100422.94;;;38.25;35.36
6349;BME280;3207;42.648;23.406;2023-08-20T11:55:33;100427.97;;;38.13;36.25
6349;BME280;3207;42.648;23.406;2023-08-20T11:58:02;100427.28;;;38.26;35.55
6349;BME280;3207;42.648;23.406;2023-08-20T12:00:32;100426.75;;;38.29;35.49
6349;BME280;3207;42.648;23.406;2023-08-20T12:02:59;100425.47;;;38.17;36.04
6349;BME280;3207;42.648;23.406;2023-08-20T12:05:28;100432.09;;;38.00;36.71
6349;BME280;3207;42.648;23.406;2023-08-20T12:07:56;100425.91;;;37.85;36.78
6349;BME280;3207;42.648;23.406;2023-08-20T12:10:25;100432.25;;;37.75;36.98
6349;BME280;3207;42.648;23.406;2023-08-20T12:12:52;100430.72;;;37.44;37.54
6349;BME280;3207;42.648;23.406;2023-08-20T12:15:21;100426.13;;;37.34;37.65
6349;BME280;3207;42.648;23.406;2023-08-20T12:18:06;100422.88;;;37.22;38.26
6349;BME280;3207;42.648;23.406;2023-08-20T12:20:35;100421.81;;;37.18;38.53
6349;BME280;3207;42.648;23.406;2023-08-20T12:23:03;100423.97;;;37.11;38.21
6349;BME280;3207;42.648;23.406;2023-08-20T12:25:32;100420.44;;;37.00;38.68
6349;BME280;3207;42.648;23.406;2023-08-20T12:28:00;100416.13;;;36.94;38.58
6349;BME280;3207;42.648;23.406;2023-08-20T12:30:28;100413.69;;;36.82;38.99
6349;BME280;3207;42.648;23.406;2023-08-20T12:32:55;100421.34;;;36.75;38.99
6349;BME280;3207;42.648;23.406;2023-08-20T12:35:22;100410.94;;;36.82;38.52
6349;BME280;3207;42.648;23.406;2023-08-20T12:37:49;100410.44;;;36.75;38.83
6349;BME280;3207;42.648;23.406;2023-08-20T12:40:16;100413.97;;;36.76;38.31
6349;BME280;3207;42.648;23.406;2023-08-20T12:42:43;100406.06;;;36.74;38.66
6349;BME280;3207;42.648;23.406;2023-08-20T12:45:10;100415.03;;;36.90;38.41
6349;BME280;3207;42.648;23.406;2023-08-20T12:47:40;100411.50;;;36.84;39.18
6349;BME280;3207;42.648;23.406;2023-08-20T12:50:16;100400.03;;;36.67;39.03
6349;BME280;3207;42.648;23.406;2023-08-20T12:52:43;100398.97;;;36.73;39.11
6349;BME280;3207;42.648;23.406;2023-08-20T12:55:10;100394.88;;;36.81;39.05
6349;BME280;3207;42.648;23.406;2023-08-20T12:57:36;100401.69;;;36.83;39.23
6349;BME280;3207;42.648;23.406;2023-08-20T13:00:18;100393.47;;;36.93;39.18
6349;BME280;3207;42.648;23.406;2023-08-20T13:02:47;100400.28;;;37.06;39.17
6349;BME280;3207;42.648;23.406;2023-08-20T13:05:14;100398.09;;;37.03;39.25